sensor_id;sensor_type;location;lat;lon;timestamp;P1;durP1;ratioP1;P2;durP2;ratioP2
50681;SDS011;36779;52.168;20.878;2023-03-14T00:01:21;11.20;;;4.70;;
50681;SDS011;36779;52.168;20.878;2023-03-14T00:03:51;12.40;;;4.90;;
50681;SDS011;36779;52.168;20.878;2023-03-14T00:06:20;10.30;;;4.30;;
50681;SDS011;36779;52.168;20.878;2023-03-14T00:08:50;10.90;;;4.90;;
50681;SDS011;36779;52.168;20.878;2023-03-14T00:11:19;11.30;;;4.30;;
50681;SDS011;36779;52.168;20.878;2023-03-14T00:13:49;9.40;;;4.10;;
50681;SDS011;36779;52.168;20.878;2023-03-14T00:16:19;9.70;;;4.10;;
50681;SDS011;36779;52.168;20.878;2023-03-14T00:18:48;11.30;;;4.60;;
50681;SDS011;36779;52.168;20.878;2023-03-14T00:21:18;9.90;;;4.60;;
50681;SDS011;36779;52.168;20.878;2023-03-14T00:23:48;10.10;;;4.60;;
50681;SDS011;36779;52.168;20.878;2023-03-14T00:26:17;11.50;;;5.10;;
50681;SDS011;36779;52.168;20.878;2023-03-14T00:28:51;11.80;;;5.40;;
50681;SDS011;36779;52.168;20.878;2023-03-14T00:31:21;11.40;;;4.90;;
50681;SDS011;36779;52.168;20.878;2023-03-14T00:33:52;10.60;;;4.30;;
50681;SDS011;36779;52.168;20.878;2023-03-14T00:36:21;11.30;;;4.90;;
50681;SDS011;36779;52.168;20.878;2023-03-14T00:38:51;13.10;;;5.10;;
50681;SDS011;36779;52.168;20.878;2023-03-14T00:41:22;10.30;;;4.70;;
50681;SDS011;36779;52.168;20.878;2023-03-14T00:43:52;14.60;;;5.40;;
50681;SDS011;36779;52.168;20.878;2023-03-14T00:46:21;11.80;;;4.70;;
50681;SDS011;36779;52.168;20.878;2023-03-14T00:48:50;10.60;;;5.20;;
50681;SDS011;36779;52.168;20.878;2023-03-14T00:51:18;12.60;;;5.50;;
50681;SDS011;36779;52.168;20.878;2023-03-14T00:53:47;10.90;;;4.70;;
50681;SDS011;36779;52.168;20.878;2023-03-14T00:56:16;11.00;;;5.00;;
50681;SDS011;36779;52.168;20.878;2023-03-14T00:58:45;9.60;;;4.90;;
50681;SDS011;36779;52.168;20.878;2023-03-14T01:01:15;10.10;;;4.80;;
50681;SDS011;36779;52.168;20.878;2023-03-14T01:03:46;14.10;;;5.30;;
50681;SDS011;36779;52.168;20.878;2023-03-14T01:06:16;10.90;;;4.10;;
50681;SDS011;36779;52.168;20.878;2023-03-14T01:08:47;11.00;;;4.80;;
50681;SDS011;36779;52.168;20.878;2023-03-14T01:11:17;11.70;;;4.90;;
50681;SDS011;36779;52.168;20.878;2023-03-14T01:13:47;10.10;;;4.70;;
50681;SDS011;36779;52.168;20.878;2023-03-14T01:16:16;9.70;;;4.80;;
50681;SDS011;36779;52.168;20.878;2023-03-14T01:18:47;11.00;;;5.40;;
50681;SDS011;36779;52.168;20.878;2023-03-14T01:21:17;10.90;;;4.80;;
50681;SDS011;36779;52.168;20.878;2023-03-14T01:23:47;10.50;;;4.40;;
50681;SDS011;36779;52.168;20.878;2023-03-14T01:26:18;15.60;;;5.20;;
50681;SDS011;36779;52.168;20.878;2023-03-14T01:28:51;8.80;;;4.70;;
50681;SDS011;36779;52.168;20.878;2023-03-14T01:31:22;12.80;;;5.20;;
50681;SDS011;36779;52.168;20.878;2023-03-14T01:33:52;10.50;;;4.60;;
50681;SDS011;36779;52.168;20.878;2023-03-14T01:36:24;12.50;;;4.50;;
50681;SDS011;36779;52.168;20.878;2023-03-14T01:38:53;15.60;;;5.60;;
50681;SDS011;36779;52.168;20.878;2023-03-14T01:41:24;10.80;;;4.40;;
50681;SDS011;36779;52.168;20.878;2023-03-14T01:43:56;9.40;;;5.10;;
50681;SDS011;36779;52.168;20.878;2023-03-14T01:46:29;12.40;;;4.90;;
50681;SDS011;36779;52.168;20.878;2023-03-14T01:52:05;12.70;;;4.30;;
50681;SDS011;36779;52.168;20.878;2023-03-14T01:54:38;9.40;;;3.90;;
50681;SDS011;36779;52.168;20.878;2023-03-14T01:57:11;11.10;;;4.70;;
50681;SDS011;36779;52.168;20.878;2023-03-14T01:59:45;11.50;;;4.60;;
50681;SDS011;36779;52.168;20.878;2023-03-14T02:02:17;10.40;;;4.70;;
50681;SDS011;36779;52.168;20.878;2023-03-14T02:04:47;6.80;;;3.90;;
50681;SDS011;36779;52.168;20.878;2023-03-14T02:07:18;11.30;;;4.30;;
50681;SDS011;36779;52.168;20.878;2023-03-14T02:09:58;10.30;;;4.70;;
50681;SDS011;36779;52.168;20.878;2023-03-14T02:12:32;10.30;;;4.20;;
50681;SDS011;36779;52.168;20.878;2023-03-14T02:15:24;10.90;;;4.20;;
50681;SDS011;36779;52.168;20.878;2023-03-14T02:17:59;11.60;;;4.80;;
50681;SDS011;36779;52.168;20.878;2023-03-14T02:21:11;11.30;;;4.80;;
50681;SDS011;36779;52.168;20.878;2023-03-14T02:23:47;10.40;;;4.60;;
50681;SDS011;36779;52.168;20.878;2023-03-14T02:26:23;11.80;;;4.70;;
50681;SDS011;36779;52.168;20.878;2023-03-14T02:28:55;10.10;;;4.50;;
50681;SDS011;36779;52.168;20.878;2023-03-14T02:31:24;10.10;;;4.20;;
50681;SDS011;36779;52.168;20.878;2023-03-14T02:33:53;11.90;;;4.60;;
50681;SDS011;36779;52.168;20.878;2023-03-14T02:36:24;9.10;;;4.50;;
50681;SDS011;36779;52.168;20.878;2023-03-14T02:38:55;11.40;;;5.00;;
50681;SDS011;36779;52.168;20.878;2023-03-14T02:41:34;12.70;;;5.60;;
50681;SDS011;36779;52.168;20.878;2023-03-14T02:44:05;11.00;;;4.70;;
50681;SDS011;36779;52.168;20.878;2023-03-14T02:46:34;9.80;;;4.50;;
50681;SDS011;36779;52.168;20.878;2023-03-14T02:49:04;12.50;;;5.20;;
50681;SDS011;36779;52.168;20.878;2023-03-14T02:51:39;13.10;;;5.40;;
50681;SDS011;36779;52.168;20.878;2023-03-14T02:54:10;11.40;;;5.20;;
50681;SDS011;36779;52.168;20.878;2023-03-14T02:56:39;10.50;;;4.90;;
50681;SDS011;36779;52.168;20.878;2023-03-14T02:59:12;10.30;;;4.60;;
50681;SDS011;36779;52.168;20.878;2023-03-14T03:01:59;10.90;;;4.30;;
50681;SDS011;36779;52.168;20.878;2023-03-14T03:04:28;9.50;;;4.30;;
50681;SDS011;36779;52.168;20.878;2023-03-14T03:06:57;13.50;;;4.80;;
50681;SDS011;36779;52.168;20.878;2023-03-14T03:09:26;8.60;;;4.20;;
50681;SDS011;36779;52.168;20.878;2023-03-14T03:11:55;11.50;;;4.70;;
50681;SDS011;36779;52.168;20.878;2023-03-14T03:14:26;12.60;;;4.30;;
50681;SDS011;36779;52.168;20.878;2023-03-14T03:16:56;13.10;;;4.00;;
50681;SDS011;36779;52.168;20.878;2023-03-14T03:19:25;7.10;;;3.60;;
50681;SDS011;36779;52.168;20.878;2023-03-14T03:21:54;12.10;;;4.40;;
50681;SDS011;36779;52.168;20.878;2023-03-14T03:24:22;7.80;;;4.10;;
50681;SDS011;36779;52.168;20.878;2023-03-14T03:26:52;11.90;;;4.60;;
50681;SDS011;36779;52.168;20.878;2023-03-14T03:29:21;8.90;;;4.00;;
50681;SDS011;36779;52.168;20.878;2023-03-14T03:31:53;7.00;;;3.80;;
50681;SDS011;36779;52.168;20.878;2023-03-14T03:34:22;10.60;;;3.80;;
50681;SDS011;36779;52.168;20.878;2023-03-14T03:36:52;8.70;;;3.70;;
50681;SDS011;36779;52.168;20.878;2023-03-14T03:39:23;8.00;;;3.40;;
50681;SDS011;36779;52.168;20.878;2023-03-14T03:41:52;8.90;;;4.00;;
50681;SDS011;36779;52.168;20.878;2023-03-14T03:44:22;5.40;;;2.70;;
50681;SDS011;36779;52.168;20.878;2023-03-14T03:46:52;8.00;;;3.60;;
50681;SDS011;36779;52.168;20.878;2023-03-14T03:49:21;7.60;;;3.50;;
50681;SDS011;36779;52.168;20.878;2023-03-14T03:51:50;6.50;;;3.00;;
50681;SDS011;36779;52.168;20.878;2023-03-14T03:54:19;9.00;;;3.50;;
50681;SDS011;36779;52.168;20.878;2023-03-14T03:56:48;9.80;;;3.50;;
50681;SDS011;36779;52.168;20.878;2023-03-14T03:59:18;6.20;;;3.30;;
50681;SDS011;36779;52.168;20.878;2023-03-14T04:01:48;9.40;;;3.40;;
50681;SDS011;36779;52.168;20.878;2023-03-14T04:04:18;6.20;;;2.50;;
50681;SDS011;36779;52.168;20.878;2023-03-14T04:06:49;5.80;;;3.30;;
50681;SDS011;36779;52.168;20.878;2023-03-14T04:09:18;7.00;;;3.40;;
50681;SDS011;36779;52.168;20.878;2023-03-14T04:12:07;7.80;;;3.50;;
50681;SDS011;36779;52.168;20.878;2023-03-14T04:14:58;7.60;;;3.60;;
50681;SDS011;36779;52.168;20.878;2023-03-14T04:17:27;9.90;;;4.00;;
50681;SDS011;36779;52.168;20.878;2023-03-14T04:19:56;8.20;;;3.90;;
50681;SDS011;36779;52.168;20.878;2023-03-14T04:22:32;7.60;;;3.40;;
50681;SDS011;36779;52.168;20.878;2023-03-14T04:25:05;7.90;;;3.20;;
50681;SDS011;36779;52.168;20.878;2023-03-14T04:27:40;9.00;;;3.70;;
50681;SDS011;36779;52.168;20.878;2023-03-14T04:30:17;8.40;;;3.60;;
50681;SDS011;36779;52.168;20.878;2023-03-14T04:32:51;5.30;;;3.10;;
50681;SDS011;36779;52.168;20.878;2023-03-14T04:35:22;9.50;;;3.50;;
50681;SDS011;36779;52.168;20.878;2023-03-14T04:37:55;10.20;;;3.20;;
50681;SDS011;36779;52.168;20.878;2023-03-14T04:40:25;7.60;;;3.20;;
50681;SDS011;36779;52.168;20.878;2023-03-14T04:42:58;6.80;;;3.20;;
50681;SDS011;36779;52.168;20.878;2023-03-14T04:45:27;6.00;;;2.80;;
50681;SDS011;36779;52.168;20.878;2023-03-14T04:47:59;8.60;;;2.80;;
50681;SDS011;36779;52.168;20.878;2023-03-14T04:50:29;9.50;;;3.20;;
50681;SDS011;36779;52.168;20.878;2023-03-14T04:52:58;7.90;;;3.00;;
50681;SDS011;36779;52.168;20.878;2023-03-14T04:55:27;7.30;;;3.30;;
50681;SDS011;36779;52.168;20.878;2023-03-14T04:57:57;6.70;;;3.60;;
50681;SDS011;36779;52.168;20.878;2023-03-14T05:00:27;5.20;;;2.30;;
50681;SDS011;36779;52.168;20.878;2023-03-14T05:03:12;9.00;;;3.10;;
50681;SDS011;36779;52.168;20.878;2023-03-14T05:05:52;8.20;;;2.80;;
50681;SDS011;36779;52.168;20.878;2023-03-14T05:08:42;7.00;;;2.80;;
50681;SDS011;36779;52.168;20.878;2023-03-14T05:11:12;5.00;;;2.90;;
50681;SDS011;36779;52.168;20.878;2023-03-14T05:13:49;8.30;;;2.80;;
50681;SDS011;36779;52.168;20.878;2023-03-14T05:16:18;9.70;;;4.30;;
50681;SDS011;36779;52.168;20.878;2023-03-14T05:18:56;8.10;;;3.00;;
50681;SDS011;36779;52.168;20.878;2023-03-14T05:21:52;6.50;;;2.80;;
50681;SDS011;36779;52.168;20.878;2023-03-14T05:24:27;6.40;;;2.60;;
50681;SDS011;36779;52.168;20.878;2023-03-14T05:27:04;5.70;;;2.90;;
50681;SDS011;36779;52.168;20.878;2023-03-14T05:29:51;10.30;;;3.40;;
50681;SDS011;36779;52.168;20.878;2023-03-14T05:32:37;6.70;;;3.20;;
50681;SDS011;36779;52.168;20.878;2023-03-14T05:35:36;4.10;;;2.60;;
50681;SDS011;36779;52.168;20.878;2023-03-14T05:38:17;7.40;;;3.20;;
50681;SDS011;36779;52.168;20.878;2023-03-14T05:41:04;5.50;;;2.70;;
50681;SDS011;36779;52.168;20.878;2023-03-14T05:43:36;9.00;;;3.50;;
50681;SDS011;36779;52.168;20.878;2023-03-14T05:46:29;6.30;;;2.80;;
50681;SDS011;36779;52.168;20.878;2023-03-14T05:49:22;8.70;;;3.20;;
50681;SDS011;36779;52.168;20.878;2023-03-14T05:54:48;7.20;;;2.90;;
50681;SDS011;36779;52.168;20.878;2023-03-14T05:57:27;7.80;;;3.20;;
50681;SDS011;36779;52.168;20.878;2023-03-14T06:00:17;7.00;;;3.20;;
50681;SDS011;36779;52.168;20.878;2023-03-14T06:02:56;6.30;;;3.00;;
50681;SDS011;36779;52.168;20.878;2023-03-14T06:05:27;5.50;;;3.00;;
50681;SDS011;36779;52.168;20.878;2023-03-14T06:08:00;6.90;;;3.10;;
50681;SDS011;36779;52.168;20.878;2023-03-14T06:10:30;5.20;;;2.80;;
50681;SDS011;36779;52.168;20.878;2023-03-14T06:13:00;7.30;;;2.90;;
50681;SDS011;36779;52.168;20.878;2023-03-14T06:15:33;6.40;;;2.70;;
50681;SDS011;36779;52.168;20.878;2023-03-14T06:18:06;7.10;;;3.20;;
50681;SDS011;36779;52.168;20.878;2023-03-14T06:20:36;6.80;;;2.80;;
50681;SDS011;36779;52.168;20.878;2023-03-14T06:23:07;6.90;;;2.60;;
50681;SDS011;36779;52.168;20.878;2023-03-14T06:25:36;9.30;;;2.70;;
50681;SDS011;36779;52.168;20.878;2023-03-14T06:28:05;9.20;;;3.20;;
50681;SDS011;36779;52.168;20.878;2023-03-14T06:30:35;6.20;;;2.80;;
50681;SDS011;36779;52.168;20.878;2023-03-14T06:33:06;6.20;;;2.80;;
50681;SDS011;36779;52.168;20.878;2023-03-14T06:35:38;7.30;;;2.90;;
50681;SDS011;36779;52.168;20.878;2023-03-14T06:38:07;6.80;;;2.60;;
50681;SDS011;36779;52.168;20.878;2023-03-14T06:40:36;5.50;;;2.20;;
50681;SDS011;36779;52.168;20.878;2023-03-14T06:43:12;5.80;;;2.70;;
50681;SDS011;36779;52.168;20.878;2023-03-14T06:45:43;7.10;;;2.70;;
50681;SDS011;36779;52.168;20.878;2023-03-14T06:48:13;5.90;;;3.00;;
50681;SDS011;36779;52.168;20.878;2023-03-14T06:50:49;11.50;;;3.10;;
50681;SDS011;36779;52.168;20.878;2023-03-14T06:53:19;9.50;;;3.50;;
50681;SDS011;36779;52.168;20.878;2023-03-14T06:55:48;6.60;;;2.90;;
50681;SDS011;36779;52.168;20.878;2023-03-14T06:58:17;7.10;;;3.60;;
50681;SDS011;36779;52.168;20.878;2023-03-14T07:00:47;6.30;;;3.40;;
50681;SDS011;36779;52.168;20.878;2023-03-14T07:03:20;8.10;;;3.00;;
50681;SDS011;36779;52.168;20.878;2023-03-14T07:05:50;6.10;;;2.60;;
50681;SDS011;36779;52.168;20.878;2023-03-14T07:08:20;6.20;;;3.30;;
50681;SDS011;36779;52.168;20.878;2023-03-14T07:10:49;7.60;;;3.20;;
50681;SDS011;36779;52.168;20.878;2023-03-14T07:13:23;6.50;;;3.20;;
50681;SDS011;36779;52.168;20.878;2023-03-14T07:16:05;6.10;;;3.00;;
50681;SDS011;36779;52.168;20.878;2023-03-14T07:18:37;6.00;;;3.10;;
50681;SDS011;36779;52.168;20.878;2023-03-14T07:21:06;7.10;;;3.30;;
50681;SDS011;36779;52.168;20.878;2023-03-14T07:23:37;7.40;;;3.40;;
50681;SDS011;36779;52.168;20.878;2023-03-14T07:26:07;8.30;;;3.40;;
50681;SDS011;36779;52.168;20.878;2023-03-14T07:28:38;8.90;;;3.50;;
50681;SDS011;36779;52.168;20.878;2023-03-14T07:31:10;7.00;;;3.50;;
50681;SDS011;36779;52.168;20.878;2023-03-14T07:33:40;8.50;;;3.80;;
50681;SDS011;36779;52.168;20.878;2023-03-14T07:36:10;7.80;;;3.80;;
50681;SDS011;36779;52.168;20.878;2023-03-14T07:38:43;6.60;;;3.30;;
50681;SDS011;36779;52.168;20.878;2023-03-14T07:41:51;8.90;;;4.70;;
50681;SDS011;36779;52.168;20.878;2023-03-14T07:44:39;7.80;;;5.30;;
50681;SDS011;36779;52.168;20.878;2023-03-14T07:47:08;7.70;;;5.10;;
50681;SDS011;36779;52.168;20.878;2023-03-14T07:49:52;5.50;;;4.00;;
50681;SDS011;36779;52.168;20.878;2023-03-14T08:32:19;8.70;;;6.20;;
50681;SDS011;36779;52.168;20.878;2023-03-14T08:35:06;8.10;;;5.20;;
50681;SDS011;36779;52.168;20.878;2023-03-14T08:47:12;7.90;;;3.90;;
50681;SDS011;36779;52.168;20.878;2023-03-14T08:55:24;6.00;;;2.90;;
50681;SDS011;36779;52.168;20.878;2023-03-14T08:58:06;6.90;;;3.50;;
50681;SDS011;36779;52.168;20.878;2023-03-14T09:00:35;6.40;;;3.80;;
50681;SDS011;36779;52.168;20.878;2023-03-14T09:03:05;4.60;;;3.70;;
50681;SDS011;36779;52.168;20.878;2023-03-14T09:05:34;5.50;;;3.60;;
50681;SDS011;36779;52.168;20.878;2023-03-14T09:08:06;8.70;;;5.20;;
50681;SDS011;36779;52.168;20.878;2023-03-14T09:10:35;7.00;;;4.70;;
50681;SDS011;36779;52.168;20.878;2023-03-14T09:13:05;7.40;;;5.00;;
50681;SDS011;36779;52.168;20.878;2023-03-14T09:15:34;7.20;;;4.20;;
50681;SDS011;36779;52.168;20.878;2023-03-14T09:18:04;8.90;;;6.50;;
50681;SDS011;36779;52.168;20.878;2023-03-14T09:20:35;10.60;;;6.40;;
50681;SDS011;36779;52.168;20.878;2023-03-14T09:23:04;11.50;;;4.50;;
50681;SDS011;36779;52.168;20.878;2023-03-14T09:25:33;6.30;;;4.00;;
50681;SDS011;36779;52.168;20.878;2023-03-14T09:28:02;7.30;;;4.50;;
50681;SDS011;36779;52.168;20.878;2023-03-14T09:30:32;6.40;;;3.90;;
50681;SDS011;36779;52.168;20.878;2023-03-14T09:33:06;13.30;;;5.50;;
50681;SDS011;36779;52.168;20.878;2023-03-14T09:35:35;10.10;;;4.20;;
50681;SDS011;36779;52.168;20.878;2023-03-14T09:38:04;10.90;;;3.60;;
50681;SDS011;36779;52.168;20.878;2023-03-14T09:40:35;6.90;;;4.30;;
50681;SDS011;36779;52.168;20.878;2023-03-14T09:43:05;6.70;;;4.10;;
50681;SDS011;36779;52.168;20.878;2023-03-14T09:45:38;7.10;;;3.40;;
50681;SDS011;36779;52.168;20.878;2023-03-14T09:48:12;10.60;;;6.10;;
50681;SDS011;36779;52.168;20.878;2023-03-14T09:50:45;8.10;;;4.50;;
50681;SDS011;36779;52.168;20.878;2023-03-14T09:53:17;6.90;;;3.80;;
50681;SDS011;36779;52.168;20.878;2023-03-14T09:55:51;5.40;;;3.30;;
50681;SDS011;36779;52.168;20.878;2023-03-14T09:58:23;6.90;;;3.50;;
50681;SDS011;36779;52.168;20.878;2023-03-14T10:00:52;6.80;;;3.20;;
50681;SDS011;36779;52.168;20.878;2023-03-14T10:03:25;7.80;;;5.20;;
50681;SDS011;36779;52.168;20.878;2023-03-14T10:05:57;15.30;;;9.10;;
50681;SDS011;36779;52.168;20.878;2023-03-14T10:08:27;16.60;;;7.60;;
50681;SDS011;36779;52.168;20.878;2023-03-14T10:10:56;7.90;;;4.40;;
50681;SDS011;36779;52.168;20.878;2023-03-14T10:13:26;17.70;;;9.10;;
50681;SDS011;36779;52.168;20.878;2023-03-14T10:15:59;7.30;;;3.60;;
50681;SDS011;36779;52.168;20.878;2023-03-14T10:18:36;7.10;;;4.10;;
50681;SDS011;36779;52.168;20.878;2023-03-14T10:21:06;6.40;;;4.20;;
50681;SDS011;36779;52.168;20.878;2023-03-14T10:23:45;5.90;;;3.40;;
50681;SDS011;36779;52.168;20.878;2023-03-14T10:26:17;19.70;;;8.70;;
50681;SDS011;36779;52.168;20.878;2023-03-14T10:28:51;12.70;;;4.90;;
50681;SDS011;36779;52.168;20.878;2023-03-14T10:31:32;8.10;;;4.50;;
50681;SDS011;36779;52.168;20.878;2023-03-14T10:34:23;7.30;;;4.50;;
50681;SDS011;36779;52.168;20.878;2023-03-14T10:36:53;8.70;;;4.60;;
50681;SDS011;36779;52.168;20.878;2023-03-14T10:39:28;6.80;;;4.10;;
50681;SDS011;36779;52.168;20.878;2023-03-14T10:42:06;8.40;;;4.70;;
50681;SDS011;36779;52.168;20.878;2023-03-14T10:44:42;6.20;;;3.70;;
50681;SDS011;36779;52.168;20.878;2023-03-14T10:47:16;6.10;;;3.80;;
50681;SDS011;36779;52.168;20.878;2023-03-14T10:49:48;9.50;;;4.90;;
50681;SDS011;36779;52.168;20.878;2023-03-14T10:52:20;9.10;;;4.10;;
50681;SDS011;36779;52.168;20.878;2023-03-14T10:55:08;5.30;;;3.40;;
50681;SDS011;36779;52.168;20.878;2023-03-14T10:57:39;7.30;;;3.10;;
50681;SDS011;36779;52.168;20.878;2023-03-14T11:00:12;4.70;;;2.80;;
50681;SDS011;36779;52.168;20.878;2023-03-14T11:05:39;7.10;;;4.10;;
50681;SDS011;36779;52.168;20.878;2023-03-14T11:08:14;5.50;;;4.00;;
50681;SDS011;36779;52.168;20.878;2023-03-14T11:10:48;6.70;;;4.70;;
50681;SDS011;36779;52.168;20.878;2023-03-14T11:13:23;6.30;;;3.40;;
50681;SDS011;36779;52.168;20.878;2023-03-14T11:15:59;7.40;;;3.70;;
50681;SDS011;36779;52.168;20.878;2023-03-14T11:18:47;6.50;;;5.10;;
50681;SDS011;36779;52.168;20.878;2023-03-14T11:21:24;7.90;;;4.80;;
50681;SDS011;36779;52.168;20.878;2023-03-14T11:24:10;6.00;;;4.10;;
50681;SDS011;36779;52.168;20.878;2023-03-14T11:27:03;6.80;;;4.00;;
50681;SDS011;36779;52.168;20.878;2023-03-14T11:29:40;5.60;;;4.50;;
50681;SDS011;36779;52.168;20.878;2023-03-14T11:32:14;8.30;;;5.60;;
50681;SDS011;36779;52.168;20.878;2023-03-14T11:34:52;8.90;;;5.30;;
50681;SDS011;36779;52.168;20.878;2023-03-14T11:37:23;13.80;;;8.40;;
50681;SDS011;36779;52.168;20.878;2023-03-14T11:40:01;12.80;;;6.10;;
50681;SDS011;36779;52.168;20.878;2023-03-14T11:42:37;17.50;;;8.90;;
50681;SDS011;36779;52.168;20.878;2023-03-14T11:45:13;9.30;;;6.20;;
50681;SDS011;36779;52.168;20.878;2023-03-14T11:47:45;7.80;;;4.10;;
50681;SDS011;36779;52.168;20.878;2023-03-14T11:50:21;8.10;;;5.40;;
50681;SDS011;36779;52.168;20.878;2023-03-14T11:52:58;8.90;;;4.80;;
50681;SDS011;36779;52.168;20.878;2023-03-14T11:55:33;8.40;;;4.70;;
50681;SDS011;36779;52.168;20.878;2023-03-14T11:58:09;10.10;;;5.90;;
50681;SDS011;36779;52.168;20.878;2023-03-14T12:00:43;9.70;;;5.70;;
50681;SDS011;36779;52.168;20.878;2023-03-14T12:03:14;7.90;;;4.50;;
50681;SDS011;36779;52.168;20.878;2023-03-14T12:05:52;6.00;;;3.90;;
50681;SDS011;36779;52.168;20.878;2023-03-14T12:08:33;9.20;;;4.90;;
50681;SDS011;36779;52.168;20.878;2023-03-14T12:11:18;7.50;;;4.30;;
50681;SDS011;36779;52.168;20.878;2023-03-14T12:13:54;8.10;;;4.60;;
50681;SDS011;36779;52.168;20.878;2023-03-14T12:16:30;14.40;;;12.40;;
50681;SDS011;36779;52.168;20.878;2023-03-14T12:21:57;8.40;;;4.80;;
50681;SDS011;36779;52.168;20.878;2023-03-14T12:24:38;8.30;;;4.80;;
50681;SDS011;36779;52.168;20.878;2023-03-14T12:27:13;8.40;;;5.20;;
50681;SDS011;36779;52.168;20.878;2023-03-14T12:30:26;11.90;;;4.80;;
50681;SDS011;36779;52.168;20.878;2023-03-14T12:36:05;9.10;;;4.90;;
50681;SDS011;36779;52.168;20.878;2023-03-14T12:38:51;9.70;;;4.70;;
50681;SDS011;36779;52.168;20.878;2023-03-14T12:41:36;9.90;;;5.80;;
50681;SDS011;36779;52.168;20.878;2023-03-14T12:50:32;12.40;;;7.00;;
50681;SDS011;36779;52.168;20.878;2023-03-14T12:56:14;15.30;;;7.00;;
50681;SDS011;36779;52.168;20.878;2023-03-14T12:58:54;10.20;;;5.30;;
50681;SDS011;36779;52.168;20.878;2023-03-14T13:01:47;9.70;;;4.90;;
50681;SDS011;36779;52.168;20.878;2023-03-14T13:04:26;9.50;;;5.50;;
50681;SDS011;36779;52.168;20.878;2023-03-14T13:07:10;12.70;;;6.90;;
50681;SDS011;36779;52.168;20.878;2023-03-14T13:12:49;13.30;;;6.20;;
50681;SDS011;36779;52.168;20.878;2023-03-14T13:15:27;10.10;;;5.20;;
50681;SDS011;36779;52.168;20.878;2023-03-14T13:18:01;9.00;;;4.30;;
50681;SDS011;36779;52.168;20.878;2023-03-14T13:20:38;10.60;;;4.60;;
50681;SDS011;36779;52.168;20.878;2023-03-14T13:23:20;8.40;;;3.90;;
50681;SDS011;36779;52.168;20.878;2023-03-14T13:25:51;5.40;;;3.30;;
50681;SDS011;36779;52.168;20.878;2023-03-14T13:28:20;11.50;;;3.60;;
50681;SDS011;36779;52.168;20.878;2023-03-14T13:34:00;9.10;;;4.50;;
50681;SDS011;36779;52.168;20.878;2023-03-14T13:36:38;7.30;;;3.40;;
50681;SDS011;36779;52.168;20.878;2023-03-14T13:41:51;12.40;;;4.70;;
50681;SDS011;36779;52.168;20.878;2023-03-14T13:44:37;13.00;;;5.00;;
50681;SDS011;36779;52.168;20.878;2023-03-14T13:47:13;11.50;;;4.60;;
50681;SDS011;36779;52.168;20.878;2023-03-14T13:52:54;8.40;;;4.20;;
50681;SDS011;36779;52.168;20.878;2023-03-14T13:55:44;8.40;;;4.20;;
50681;SDS011;36779;52.168;20.878;2023-03-14T13:58:21;11.40;;;3.50;;
50681;SDS011;36779;52.168;20.878;2023-03-14T14:01:12;9.70;;;3.40;;
50681;SDS011;36779;52.168;20.878;2023-03-14T14:03:46;8.60;;;3.80;;
50681;SDS011;36779;52.168;20.878;2023-03-14T14:06:29;9.10;;;3.70;;
50681;SDS011;36779;52.168;20.878;2023-03-14T14:09:11;10.00;;;3.40;;
50681;SDS011;36779;52.168;20.878;2023-03-14T14:11:55;6.20;;;3.20;;
50681;SDS011;36779;52.168;20.878;2023-03-14T14:14:47;8.00;;;3.30;;
50681;SDS011;36779;52.168;20.878;2023-03-14T14:20:19;8.10;;;3.30;;
50681;SDS011;36779;52.168;20.878;2023-03-14T14:23:09;9.00;;;3.10;;
50681;SDS011;36779;52.168;20.878;2023-03-14T14:25:46;5.20;;;3.20;;
50681;SDS011;36779;52.168;20.878;2023-03-14T14:28:21;6.80;;;3.40;;
50681;SDS011;36779;52.168;20.878;2023-03-14T14:31:00;7.70;;;3.40;;
50681;SDS011;36779;52.168;20.878;2023-03-14T14:33:56;9.40;;;3.50;;
50681;SDS011;36779;52.168;20.878;2023-03-14T14:36:29;7.90;;;3.20;;
50681;SDS011;36779;52.168;20.878;2023-03-14T14:39:09;5.20;;;3.30;;
50681;SDS011;36779;52.168;20.878;2023-03-14T14:41:56;9.50;;;3.60;;
50681;SDS011;36779;52.168;20.878;2023-03-14T14:44:27;8.30;;;3.80;;
50681;SDS011;36779;52.168;20.878;2023-03-14T14:47:02;10.50;;;4.00;;
50681;SDS011;36779;52.168;20.878;2023-03-14T14:49:34;6.70;;;3.60;;
50681;SDS011;36779;52.168;20.878;2023-03-14T14:52:10;10.30;;;3.90;;
50681;SDS011;36779;52.168;20.878;2023-03-14T15:20:23;7.90;;;3.20;;
50681;SDS011;36779;52.168;20.878;2023-03-14T15:22:52;8.70;;;3.60;;
50681;SDS011;36779;52.168;20.878;2023-03-14T15:25:24;5.90;;;4.00;;
50681;SDS011;36779;52.168;20.878;2023-03-14T15:28:17;10.70;;;4.50;;
50681;SDS011;36779;52.168;20.878;2023-03-14T15:30:48;11.10;;;4.80;;
50681;SDS011;36779;52.168;20.878;2023-03-14T15:33:20;12.50;;;5.10;;
50681;SDS011;36779;52.168;20.878;2023-03-14T15:35:50;12.40;;;5.10;;
50681;SDS011;36779;52.168;20.878;2023-03-14T15:38:28;10.40;;;5.10;;
50681;SDS011;36779;52.168;20.878;2023-03-14T15:50:45;17.90;;;6.10;;
50681;SDS011;36779;52.168;20.878;2023-03-14T15:57:16;14.00;;;5.80;;
50681;SDS011;36779;52.168;20.878;2023-03-14T16:01:17;10.20;;;4.90;;
50681;SDS011;36779;52.168;20.878;2023-03-14T16:05:12;9.70;;;5.60;;
50681;SDS011;36779;52.168;20.878;2023-03-14T16:17:53;9.60;;;4.40;;
50681;SDS011;36779;52.168;20.878;2023-03-14T16:20:52;12.40;;;4.80;;
50681;SDS011;36779;52.168;20.878;2023-03-14T16:23:23;13.50;;;5.50;;
50681;SDS011;36779;52.168;20.878;2023-03-14T16:25:54;11.60;;;5.40;;
50681;SDS011;36779;52.168;20.878;2023-03-14T16:28:33;12.30;;;4.70;;
50681;SDS011;36779;52.168;20.878;2023-03-14T16:31:08;8.50;;;4.80;;
50681;SDS011;36779;52.168;20.878;2023-03-14T16:33:39;6.70;;;3.90;;
50681;SDS011;36779;52.168;20.878;2023-03-14T16:36:09;7.60;;;4.30;;
50681;SDS011;36779;52.168;20.878;2023-03-14T16:38:40;12.00;;;5.10;;
50681;SDS011;36779;52.168;20.878;2023-03-14T16:41:12;11.60;;;5.50;;
50681;SDS011;36779;52.168;20.878;2023-03-14T16:43:43;15.40;;;6.10;;
50681;SDS011;36779;52.168;20.878;2023-03-14T16:46:14;9.40;;;5.30;;
50681;SDS011;36779;52.168;20.878;2023-03-14T16:48:49;10.60;;;5.70;;
50681;SDS011;36779;52.168;20.878;2023-03-14T16:51:19;11.00;;;5.10;;
50681;SDS011;36779;52.168;20.878;2023-03-14T16:53:58;13.10;;;5.60;;
50681;SDS011;36779;52.168;20.878;2023-03-14T16:56:27;12.30;;;5.50;;
50681;SDS011;36779;52.168;20.878;2023-03-14T16:58:56;10.50;;;5.00;;
50681;SDS011;36779;52.168;20.878;2023-03-14T17:01:28;10.40;;;5.20;;
50681;SDS011;36779;52.168;20.878;2023-03-14T17:04:00;12.40;;;5.70;;
50681;SDS011;36779;52.168;20.878;2023-03-14T17:06:36;14.10;;;5.10;;
50681;SDS011;36779;52.168;20.878;2023-03-14T17:09:08;10.10;;;5.30;;
50681;SDS011;36779;52.168;20.878;2023-03-14T17:11:39;12.20;;;5.70;;
50681;SDS011;36779;52.168;20.878;2023-03-14T17:14:09;13.20;;;6.40;;
50681;SDS011;36779;52.168;20.878;2023-03-14T17:16:40;12.10;;;6.00;;
50681;SDS011;36779;52.168;20.878;2023-03-14T17:19:10;12.90;;;5.70;;
50681;SDS011;36779;52.168;20.878;2023-03-14T17:21:40;16.30;;;6.70;;
50681;SDS011;36779;52.168;20.878;2023-03-14T17:24:09;13.70;;;5.90;;
50681;SDS011;36779;52.168;20.878;2023-03-14T17:26:40;12.90;;;6.90;;
50681;SDS011;36779;52.168;20.878;2023-03-14T17:29:09;16.60;;;6.60;;
50681;SDS011;36779;52.168;20.878;2023-03-14T17:34:34;11.20;;;5.60;;
50681;SDS011;36779;52.168;20.878;2023-03-14T17:37:05;16.40;;;7.30;;
50681;SDS011;36779;52.168;20.878;2023-03-14T17:39:36;14.40;;;6.80;;